sensor_id;sensor_type;location;lat;lon;timestamp;pressure;altitude;pressure_sealevel;temperature
70415;BMP280;57837;52.064;113.478;2023-12-29T00:00:05;93945.84;;;-17.65
70415;BMP280;57837;52.064;113.478;2023-12-29T00:03:08;93936.78;;;-17.55
70415;BMP280;57837;52.064;113.478;2023-12-29T00:06:12;93935.72;;;-17.64
70415;BMP280;57837;52.064;113.478;2023-12-29T00:09:15;93939.09;;;-17.75
70415;BMP280;57837;52.064;113.478;2023-12-29T00:12:19;93935.53;;;-17.57
70415;BMP280;57837;52.064;113.478;2023-12-29T00:15:23;93937.56;;;-17.44
70415;BMP280;57837;52.064;113.478;2023-12-29T00:18:27;93941.63;;;-17.23
70415;BMP280;57837;52.064;113.478;2023-12-29T00:21:30;93941.53;;;-16.96
70415;BMP280;57837;52.064;113.478;2023-12-29T00:24:34;93950.44;;;-16.95
70415;BMP280;57837;52.064;113.478;2023-12-29T00:27:39;93950.94;;;-16.87
70415;BMP280;57837;52.064;113.478;2023-12-29T00:30:44;93957.94;;;-16.79
70415;BMP280;57837;52.064;113.478;2023-12-29T00:34:02;93951.75;;;-16.77
70415;BMP280;57837;52.064;113.478;2023-12-29T00:37:07;93959.66;;;-16.85
70415;BMP280;57837;52.064;113.478;2023-12-29T00:40:12;93959.59;;;-16.95
70415;BMP280;57837;52.064;113.478;2023-12-29T00:43:16;93966.75;;;-16.94
70415;BMP280;57837;52.064;113.478;2023-12-29T00:46:21;93968.03;;;-16.91
70415;BMP280;57837;52.064;113.478;2023-12-29T00:49:24;93974.22;;;-16.83
70415;BMP280;57837;52.064;113.478;2023-12-29T00:52:28;93966.56;;;-16.82
70415;BMP280;57837;52.064;113.478;2023-12-29T00:55:33;93973.81;;;-16.65
70415;BMP280;57837;52.064;113.478;2023-12-29T00:58:39;93971.59;;;-16.56
70415;BMP280;57837;52.064;113.478;2023-12-29T01:01:43;93968.63;;;-16.64
70415;BMP280;57837;52.064;113.478;2023-12-29T01:04:48;93969.09;;;-16.67
70415;BMP280;57837;52.064;113.478;2023-12-29T01:07:52;93978.84;;;-16.40
70415;BMP280;57837;52.064;113.478;2023-12-29T01:10:56;93980.38;;;-16.23
70415;BMP280;57837;52.064;113.478;2023-12-29T01:14:01;93985.09;;;-16.17
70415;BMP280;57837;52.064;113.478;2023-12-29T01:17:05;93981.91;;;-16.02
70415;BMP280;57837;52.064;113.478;2023-12-29T01:20:09;93981.88;;;-16.12
70415;BMP280;57837;52.064;113.478;2023-12-29T01:23:13;93977.19;;;-16.03
70415;BMP280;57837;52.064;113.478;2023-12-29T01:26:18;93987.59;;;-16.01
70415;BMP280;57837;52.064;113.478;2023-12-29T01:29:21;93976.19;;;-15.97
70415;BMP280;57837;52.064;113.478;2023-12-29T01:32:26;93982.59;;;-16.27
70415;BMP280;57837;52.064;113.478;2023-12-29T01:35:30;93972.34;;;-16.56
70415;BMP280;57837;52.064;113.478;2023-12-29T01:38:34;93974.28;;;-16.68
70415;BMP280;57837;52.064;113.478;2023-12-29T01:41:38;93969.59;;;-16.70
70415;BMP280;57837;52.064;113.478;2023-12-29T01:44:42;93971.59;;;-16.61
70415;BMP280;57837;52.064;113.478;2023-12-29T01:47:48;93962.94;;;-16.59
70415;BMP280;57837;52.064;113.478;2023-12-29T01:50:54;93971.59;;;-16.61
70415;BMP280;57837;52.064;113.478;2023-12-29T01:53:58;93971.84;;;-16.58
70415;BMP280;57837;52.064;113.478;2023-12-29T01:57:03;93969.63;;;-16.59
70415;BMP280;57837;52.064;113.478;2023-12-29T02:00:08;93982.84;;;-16.28
70415;BMP280;57837;52.064;113.478;2023-12-29T02:03:13;93983.88;;;-15.89
70415;BMP280;57837;52.064;113.478;2023-12-29T02:06:17;93982.66;;;-15.61
70415;BMP280;57837;52.064;113.478;2023-12-29T02:09:22;93973.50;;;-15.65
70415;BMP280;57837;52.064;113.478;2023-12-29T02:12:25;93978.44;;;-15.40
70415;BMP280;57837;52.064;113.478;2023-12-29T02:15:30;93971.72;;;-15.34
70415;BMP280;57837;52.064;113.478;2023-12-29T02:18:34;93971.00;;;-15.40
70415;BMP280;57837;52.064;113.478;2023-12-29T02:21:39;93965.75;;;-15.33
70415;BMP280;57837;52.064;113.478;2023-12-29T02:24:47;93963.31;;;-15.38
70415;BMP280;57837;52.064;113.478;2023-12-29T02:27:59;93963.31;;;-15.48
70415;BMP280;57837;52.064;113.478;2023-12-29T02:31:14;93966.31;;;-15.62
70415;BMP280;57837;52.064;113.478;2023-12-29T02:34:22;93970.25;;;-15.61
70415;BMP280;57837;52.064;113.478;2023-12-29T02:37:27;93976.50;;;-15.63
70415;BMP280;57837;52.064;113.478;2023-12-29T02:40:32;93979.44;;;-15.66
70415;BMP280;57837;52.064;113.478;2023-12-29T02:43:35;93980.41;;;-15.57
70415;BMP280;57837;52.064;113.478;2023-12-29T02:46:39;93993.31;;;-15.55
70415;BMP280;57837;52.064;113.478;2023-12-29T02:49:43;93984.91;;;-15.69
70415;BMP280;57837;52.064;113.478;2023-12-29T02:52:47;93979.69;;;-15.73
70415;BMP280;57837;52.064;113.478;2023-12-29T02:55:51;93980.19;;;-15.45
70415;BMP280;57837;52.064;113.478;2023-12-29T02:58:55;93984.13;;;-15.55
70415;BMP280;57837;52.064;113.478;2023-12-29T03:01:59;93984.38;;;-15.51
70415;BMP280;57837;52.064;113.478;2023-12-29T03:05:05;93977.91;;;-15.27
70415;BMP280;57837;52.064;113.478;2023-12-29T03:08:11;93976.84;;;-15.00
70415;BMP280;57837;52.064;113.478;2023-12-29T03:11:14;93972.09;;;-14.86
70415;BMP280;57837;52.064;113.478;2023-12-29T03:14:18;93967.28;;;-14.57
70415;BMP280;57837;52.064;113.478;2023-12-29T03:17:22;93977.50;;;-14.69
70415;BMP280;57837;52.064;113.478;2023-12-29T03:20:25;93974.50;;;-14.17
70415;BMP280;57837;52.064;113.478;2023-12-29T03:23:29;93975.53;;;-13.89
70415;BMP280;57837;52.064;113.478;2023-12-29T03:26:33;93975.44;;;-14.07
70415;BMP280;57837;52.064;113.478;2023-12-29T03:29:38;93975.50;;;-14.18
70415;BMP280;57837;52.064;113.478;2023-12-29T03:32:42;93970.72;;;-14.09
70415;BMP280;57837;52.064;113.478;2023-12-29T03:35:47;93963.75;;;-14.07
70415;BMP280;57837;52.064;113.478;2023-12-29T03:38:50;93956.00;;;-14.00
70415;BMP280;57837;52.064;113.478;2023-12-29T03:41:54;93951.69;;;-13.90
70415;BMP280;57837;52.064;113.478;2023-12-29T03:44:58;93949.31;;;-13.71
70415;BMP280;57837;52.064;113.478;2023-12-29T03:48:01;93942.69;;;-13.80
70415;BMP280;57837;52.064;113.478;2023-12-29T03:51:05;93937.19;;;-13.77
70415;BMP280;57837;52.064;113.478;2023-12-29T03:54:10;93935.06;;;-13.65
70415;BMP280;57837;52.064;113.478;2023-12-29T03:57:13;93932.59;;;-13.65
70415;BMP280;57837;52.064;113.478;2023-12-29T04:00:17;93929.84;;;-13.64
70415;BMP280;57837;52.064;113.478;2023-12-29T04:03:21;93915.34;;;-13.56
70415;BMP280;57837;52.064;113.478;2023-12-29T04:06:24;93912.97;;;-13.43
70415;BMP280;57837;52.064;113.478;2023-12-29T04:09:27;93907.94;;;-13.14
70415;BMP280;57837;52.064;113.478;2023-12-29T04:12:31;93906.81;;;-13.03
70415;BMP280;57837;52.064;113.478;2023-12-29T04:15:35;93901.03;;;-12.98
70415;BMP280;57837;52.064;113.478;2023-12-29T04:18:39;93894.84;;;-13.00
70415;BMP280;57837;52.064;113.478;2023-12-29T04:21:43;93897.84;;;-13.04
70415;BMP280;57837;52.064;113.478;2023-12-29T04:24:48;93890.25;;;-13.12
70415;BMP280;57837;52.064;113.478;2023-12-29T04:27:51;93893.25;;;-12.91
70415;BMP280;57837;52.064;113.478;2023-12-29T04:30:54;93890.06;;;-12.78
70415;BMP280;57837;52.064;113.478;2023-12-29T04:33:59;93892.22;;;-12.90
70415;BMP280;57837;52.064;113.478;2023-12-29T04:37:02;93891.34;;;-12.81
70415;BMP280;57837;52.064;113.478;2023-12-29T04:40:06;93899.34;;;-12.84
70415;BMP280;57837;52.064;113.478;2023-12-29T04:43:09;93899.88;;;-12.87
70415;BMP280;57837;52.064;113.478;2023-12-29T04:46:13;93883.22;;;-12.67
70415;BMP280;57837;52.064;113.478;2023-12-29T04:49:17;93889.19;;;-12.50
70415;BMP280;57837;52.064;113.478;2023-12-29T04:52:20;93885.25;;;-12.18
70415;BMP280;57837;52.064;113.478;2023-12-29T04:55:23;93887.69;;;-11.99
70415;BMP280;57837;52.064;113.478;2023-12-29T04:58:27;93882.25;;;-11.88
70415;BMP280;57837;52.064;113.478;2023-12-29T05:01:30;93877.72;;;-11.72
70415;BMP280;57837;52.064;113.478;2023-12-29T05:04:34;93878.75;;;-11.59
70415;BMP280;57837;52.064;113.478;2023-12-29T05:07:37;93885.75;;;-11.75
70415;BMP280;57837;52.064;113.478;2023-12-29T05:10:42;93886.22;;;-11.87
70415;BMP280;57837;52.064;113.478;2023-12-29T05:13:45;93896.34;;;-11.97
70415;BMP280;57837;52.064;113.478;2023-12-29T05:16:48;93910.34;;;-11.82
70415;BMP280;57837;52.064;113.478;2023-12-29T05:19:51;93908.13;;;-11.83
70415;BMP280;57837;52.064;113.478;2023-12-29T05:22:56;93900.66;;;-11.56
70415;BMP280;57837;52.064;113.478;2023-12-29T05:25:59;93900.28;;;-11.63
70415;BMP280;57837;52.064;113.478;2023-12-29T05:29:02;93893.16;;;-11.56
70415;BMP280;57837;52.064;113.478;2023-12-29T05:32:06;93893.16;;;-11.70
70415;BMP280;57837;52.064;113.478;2023-12-29T05:35:09;93893.91;;;-11.83
70415;BMP280;57837;52.064;113.478;2023-12-29T05:38:12;93889.34;;;-11.95
70415;BMP280;57837;52.064;113.478;2023-12-29T05:41:16;93896.47;;;-11.74
70415;BMP280;57837;52.064;113.478;2023-12-29T05:44:20;93891.22;;;-11.73
70415;BMP280;57837;52.064;113.478;2023-12-29T05:47:23;93898.44;;;-11.85
70415;BMP280;57837;52.064;113.478;2023-12-29T05:50:27;93893.25;;;-11.75
70415;BMP280;57837;52.064;113.478;2023-12-29T05:53:31;93892.22;;;-11.88
70415;BMP280;57837;52.064;113.478;2023-12-29T05:56:34;93905.19;;;-12.04
70415;BMP280;57837;52.064;113.478;2023-12-29T05:59:37;93907.47;;;-12.22
70415;BMP280;57837;52.064;113.478;2023-12-29T06:02:41;93909.16;;;-12.17
70415;BMP280;57837;52.064;113.478;2023-12-29T06:05:45;93904.72;;;-12.20
70415;BMP280;57837;52.064;113.478;2023-12-29T06:08:49;93904.44;;;-12.19
70415;BMP280;57837;52.064;113.478;2023-12-29T06:11:52;93898.69;;;-11.87
70415;BMP280;57837;52.064;113.478;2023-12-29T06:14:57;93910.75;;;-11.61
70415;BMP280;57837;52.064;113.478;2023-12-29T06:18:01;93914.13;;;-11.71
70415;BMP280;57837;52.064;113.478;2023-12-29T06:21:06;93919.50;;;-11.64
70415;BMP280;57837;52.064;113.478;2023-12-29T06:24:10;93909.78;;;-11.65
70415;BMP280;57837;52.064;113.478;2023-12-29T06:27:15;93916.38;;;-11.69
70415;BMP280;57837;52.064;113.478;2023-12-29T06:30:18;93908.69;;;-11.59
70415;BMP280;57837;52.064;113.478;2023-12-29T06:33:22;93905.56;;;-11.51
70415;BMP280;57837;52.064;113.478;2023-12-29T06:36:26;93915.16;;;-11.44
70415;BMP280;57837;52.064;113.478;2023-12-29T06:39:30;93904.09;;;-11.52
70415;BMP280;57837;52.064;113.478;2023-12-29T06:42:34;93913.97;;;-11.61
70415;BMP280;57837;52.064;113.478;2023-12-29T06:45:37;93918.22;;;-11.61
70415;BMP280;57837;52.064;113.478;2023-12-29T06:48:41;93918.19;;;-11.75
70415;BMP280;57837;52.064;113.478;2023-12-29T06:51:45;93919.66;;;-11.88
70415;BMP280;57837;52.064;113.478;2023-12-29T06:54:49;93926.41;;;-11.74
70415;BMP280;57837;52.064;113.478;2023-12-29T06:57:53;93922.00;;;-11.36
70415;BMP280;57837;52.064;113.478;2023-12-29T07:00:56;93919.88;;;-11.43
70415;BMP280;57837;52.064;113.478;2023-12-29T07:04:00;93934.56;;;-11.82
70415;BMP280;57837;52.064;113.478;2023-12-29T07:07:03;93928.47;;;-12.09
70415;BMP280;57837;52.064;113.478;2023-12-29T07:10:08;93931.09;;;-12.33
70415;BMP280;57837;52.064;113.478;2023-12-29T07:13:12;93932.72;;;-12.42
70415;BMP280;57837;52.064;113.478;2023-12-29T07:16:16;93940.44;;;-12.43
70415;BMP280;57837;52.064;113.478;2023-12-29T07:19:23;93937.34;;;-12.35
70415;BMP280;57837;52.064;113.478;2023-12-29T07:22:27;93932.50;;;-12.46
70415;BMP280;57837;52.064;113.478;2023-12-29T07:25:31;93936.28;;;-12.48
70415;BMP280;57837;52.064;113.478;2023-12-29T07:28:35;93935.72;;;-12.64
70415;BMP280;57837;52.064;113.478;2023-12-29T07:31:39;93932.56;;;-12.69
70415;BMP280;57837;52.064;113.478;2023-12-29T07:34:42;93921.94;;;-12.75
70415;BMP280;57837;52.064;113.478;2023-12-29T07:37:47;93918.78;;;-12.62
70415;BMP280;57837;52.064;113.478;2023-12-29T07:40:51;93926.63;;;-12.74
70415;BMP280;57837;52.064;113.478;2023-12-29T07:43:55;93923.47;;;-12.79
70415;BMP280;57837;52.064;113.478;2023-12-29T07:46:59;93923.63;;;-12.89
70415;BMP280;57837;52.064;113.478;2023-12-29T07:50:04;93915.88;;;-12.88
70415;BMP280;57837;52.064;113.478;2023-12-29T07:53:08;93909.00;;;-12.96
70415;BMP280;57837;52.064;113.478;2023-12-29T07:56:12;93907.75;;;-12.98
70415;BMP280;57837;52.064;113.478;2023-12-29T07:59:16;93906.75;;;-12.97
70415;BMP280;57837;52.064;113.478;2023-12-29T08:02:19;93901.53;;;-12.96
70415;BMP280;57837;52.064;113.478;2023-12-29T08:05:23;93902.31;;;-13.00
70415;BMP280;57837;52.064;113.478;2023-12-29T08:08:27;93901.25;;;-12.94
70415;BMP280;57837;52.064;113.478;2023-12-29T08:11:32;93897.72;;;-12.69
70415;BMP280;57837;52.064;113.478;2023-12-29T08:14:35;93896.19;;;-12.52
70415;BMP280;57837;52.064;113.478;2023-12-29T08:17:38;93902.25;;;-12.58
70415;BMP280;57837;52.064;113.478;2023-12-29T08:20:42;93915.78;;;-12.64
70415;BMP280;57837;52.064;113.478;2023-12-29T08:23:48;93920.13;;;-12.69
70415;BMP280;57837;52.064;113.478;2023-12-29T08:26:52;93930.38;;;-12.57
70415;BMP280;57837;52.064;113.478;2023-12-29T08:29:55;93928.53;;;-12.65
70415;BMP280;57837;52.064;113.478;2023-12-29T08:32:59;93936.88;;;-12.75
70415;BMP280;57837;52.064;113.478;2023-12-29T08:36:03;93933.09;;;-12.73
70415;BMP280;57837;52.064;113.478;2023-12-29T08:39:07;93924.19;;;-12.79
70415;BMP280;57837;52.064;113.478;2023-12-29T08:42:12;93922.09;;;-12.90
70415;BMP280;57837;52.064;113.478;2023-12-29T08:45:15;93919.00;;;-13.01
70415;BMP280;57837;52.064;113.478;2023-12-29T08:48:19;93910.66;;;-13.10
70415;BMP280;57837;52.064;113.478;2023-12-29T08:51:24;93906.41;;;-13.10
70415;BMP280;57837;52.064;113.478;2023-12-29T08:54:28;93902.09;;;-13.04
70415;BMP280;57837;52.064;113.478;2023-12-29T08:57:31;93903.78;;;-12.99
70415;BMP280;57837;52.064;113.478;2023-12-29T09:00:35;93902.78;;;-12.98
70415;BMP280;57837;52.064;113.478;2023-12-29T09:03:38;93901.63;;;-12.87
70415;BMP280;57837;52.064;113.478;2023-12-29T09:06:42;93893.94;;;-12.67
70415;BMP280;57837;52.064;113.478;2023-12-29T09:09:46;93886.00;;;-12.69
70415;BMP280;57837;52.064;113.478;2023-12-29T09:12:49;93879.78;;;-12.71
70415;BMP280;57837;52.064;113.478;2023-12-29T09:15:56;93884.22;;;-12.87
70415;BMP280;57837;52.064;113.478;2023-12-29T09:19:00;93898.03;;;-12.76
70415;BMP280;57837;52.064;113.478;2023-12-29T09:22:11;93900.19;;;-12.69
70415;BMP280;57837;52.064;113.478;2023-12-29T09:25:14;93901.91;;;-12.70
70415;BMP280;57837;52.064;113.478;2023-12-29T09:28:18;93906.63;;;-12.87
70415;BMP280;57837;52.064;113.478;2023-12-29T09:31:23;93906.13;;;-13.08
70415;BMP280;57837;52.064;113.478;2023-12-29T09:34:26;93899.53;;;-13.18
70415;BMP280;57837;52.064;113.478;2023-12-29T09:37:30;93892.56;;;-13.16
70415;BMP280;57837;52.064;113.478;2023-12-29T09:40:35;93897.63;;;-13.26
70415;BMP280;57837;52.064;113.478;2023-12-29T09:43:39;93884.03;;;-13.34
70415;BMP280;57837;52.064;113.478;2023-12-29T09:46:54;93903.19;;;-13.34
70415;BMP280;57837;52.064;113.478;2023-12-29T09:49:57;93899.06;;;-13.44
70415;BMP280;57837;52.064;113.478;2023-12-29T09:53:03;93911.44;;;-13.39
70415;BMP280;57837;52.064;113.478;2023-12-29T09:56:08;93906.69;;;-13.59
70415;BMP280;57837;52.064;113.478;2023-12-29T09:59:13;93898.94;;;-13.57
70415;BMP280;57837;52.064;113.478;2023-12-29T10:02:16;93906.03;;;-13.70
70415;BMP280;57837;52.064;113.478;2023-12-29T10:05:21;93916.59;;;-13.83
70415;BMP280;57837;52.064;113.478;2023-12-29T10:08:26;93928.56;;;-13.90
70415;BMP280;57837;52.064;113.478;2023-12-29T10:11:34;93919.59;;;-13.86
70415;BMP280;57837;52.064;113.478;2023-12-29T10:14:57;93916.75;;;-14.03
70415;BMP280;57837;52.064;113.478;2023-12-29T10:18:37;93919.16;;;-13.93
70415;BMP280;57837;52.064;113.478;2023-12-29T10:21:46;93920.97;;;-13.70
70415;BMP280;57837;52.064;113.478;2023-12-29T10:24:52;93919.09;;;-13.88
70415;BMP280;57837;52.064;113.478;2023-12-29T10:27:56;93926.13;;;-13.95
70415;BMP280;57837;52.064;113.478;2023-12-29T10:30:59;93917.59;;;-13.84
70415;BMP280;57837;52.064;113.478;2023-12-29T10:37:23;93933.59;;;-13.66
70415;BMP280;57837;52.064;113.478;2023-12-29T10:40:26;93935.00;;;-13.84
70415;BMP280;57837;52.064;113.478;2023-12-29T10:43:32;93932.66;;;-13.99
70415;BMP280;57837;52.064;113.478;2023-12-29T10:46:35;93924.47;;;-14.00
70415;BMP280;57837;52.064;113.478;2023-12-29T10:49:40;93921.00;;;-14.04
70415;BMP280;57837;52.064;113.478;2023-12-29T10:52:44;93911.94;;;-14.24
70415;BMP280;57837;52.064;113.478;2023-12-29T10:56:20;93925.56;;;-14.21
70415;BMP280;57837;52.064;113.478;2023-12-29T10:59:23;93922.59;;;-14.23
70415;BMP280;57837;52.064;113.478;2023-12-29T11:02:27;93933.34;;;-14.33
70415;BMP280;57837;52.064;113.478;2023-12-29T11:05:38;93931.19;;;-14.45
70415;BMP280;57837;52.064;113.478;2023-12-29T11:08:41;93926.72;;;-14.43
70415;BMP280;57837;52.064;113.478;2023-12-29T11:11:45;93930.50;;;-14.55
70415;BMP280;57837;52.064;113.478;2023-12-29T11:14:48;93927.28;;;-14.56
70415;BMP280;57837;52.064;113.478;2023-12-29T11:17:56;93918.59;;;-14.53
70415;BMP280;57837;52.064;113.478;2023-12-29T11:20:59;93916.91;;;-14.68
70415;BMP280;57837;52.064;113.478;2023-12-29T11:24:03;93924.63;;;-14.69
70415;BMP280;57837;52.064;113.478;2023-12-29T11:27:07;93930.84;;;-14.77
70415;BMP280;57837;52.064;113.478;2023-12-29T11:30:14;93929.66;;;-14.80
70415;BMP280;57837;52.064;113.478;2023-12-29T11:33:41;93930.66;;;-14.81
70415;BMP280;57837;52.064;113.478;2023-12-29T11:36:46;93932.59;;;-14.73
70415;BMP280;57837;52.064;113.478;2023-12-29T11:43:34;93919.84;;;-14.56
70415;BMP280;57837;52.064;113.478;2023-12-29T11:46:40;93915.91;;;-14.67
70415;BMP280;57837;52.064;113.478;2023-12-29T11:49:59;93916.16;;;-14.63
70415;BMP280;57837;52.064;113.478;2023-12-29T11:53:05;93915.28;;;-14.44
70415;BMP280;57837;52.064;113.478;2023-12-29T11:56:16;93915.25;;;-14.38
70415;BMP280;57837;52.064;113.478;2023-12-29T11:59:24;93909.81;;;-14.40
70415;BMP280;57837;52.064;113.478;2023-12-29T12:02:28;93910.16;;;-14.52
70415;BMP280;57837;52.064;113.478;2023-12-29T12:05:45;93903.16;;;-14.50
70415;BMP280;57837;52.064;113.478;2023-12-29T12:09:30;93905.94;;;-14.57
70415;BMP280;57837;52.064;113.478;2023-12-29T12:12:40;93916.91;;;-14.63
70415;BMP280;57837;52.064;113.478;2023-12-29T12:15:45;93924.06;;;-14.56
70415;BMP280;57837;52.064;113.478;2023-12-29T12:18:50;93931.06;;;-14.63
70415;BMP280;57837;52.064;113.478;2023-12-29T12:21:54;93927.84;;;-14.69
70415;BMP280;57837;52.064;113.478;2023-12-29T12:25:00;93926.09;;;-14.68
70415;BMP280;57837;52.064;113.478;2023-12-29T12:28:07;93928.56;;;-14.63
70415;BMP280;57837;52.064;113.478;2023-12-29T12:31:13;93928.28;;;-14.57
70415;BMP280;57837;52.064;113.478;2023-12-29T12:34:16;93925.94;;;-14.38
70415;BMP280;57837;52.064;113.478;2023-12-29T12:37:26;93921.59;;;-14.17
70415;BMP280;57837;52.064;113.478;2023-12-29T12:40:30;93909.56;;;-14.05
70415;BMP280;57837;52.064;113.478;2023-12-29T12:43:35;93912.28;;;-14.01
70415;BMP280;57837;52.064;113.478;2023-12-29T12:46:56;93918.22;;;-13.97
70415;BMP280;57837;52.064;113.478;2023-12-29T12:50:02;93916.91;;;-13.95
70415;BMP280;57837;52.064;113.478;2023-12-29T12:53:07;93923.81;;;-14.16
70415;BMP280;57837;52.064;113.478;2023-12-29T12:56:12;93921.41;;;-14.31
70415;BMP280;57837;52.064;113.478;2023-12-29T12:59:16;93914.31;;;-14.43
70415;BMP280;57837;52.064;113.478;2023-12-29T13:02:20;93927.19;;;-14.40
70415;BMP280;57837;52.064;113.478;2023-12-29T13:05:24;93934.63;;;-14.35
70415;BMP280;57837;52.064;113.478;2023-12-29T13:08:28;93936.66;;;-14.43
70415;BMP280;57837;52.064;113.478;2023-12-29T13:11:42;93931.19;;;-14.45
70415;BMP280;57837;52.064;113.478;2023-12-29T13:14:46;93938.91;;;-14.51
70415;BMP280;57837;52.064;113.478;2023-12-29T13:17:51;93942.38;;;-14.47
70415;BMP280;57837;52.064;113.478;2023-12-29T13:20:55;93938.41;;;-14.48
70415;BMP280;57837;52.064;113.478;2023-12-29T13:24:03;93932.03;;;-14.59
70415;BMP280;57837;52.064;113.478;2023-12-29T13:27:07;93945.16;;;-14.54
70415;BMP280;57837;52.064;113.478;2023-12-29T13:30:12;93955.00;;;-14.38
70415;BMP280;57837;52.064;113.478;2023-12-29T13:36:43;93957.34;;;-14.57
70415;BMP280;57837;52.064;113.478;2023-12-29T13:40:09;93958.75;;;-14.46
70415;BMP280;57837;52.064;113.478;2023-12-29T13:43:16;93954.03;;;-14.43
70415;BMP280;57837;52.064;113.478;2023-12-29T13:46:20;93952.25;;;-14.37
70415;BMP280;57837;52.064;113.478;2023-12-29T13:49:23;93946.06;;;-14.39
70415;BMP280;57837;52.064;113.478;2023-12-29T13:52:30;93952.03;;;-14.40
70415;BMP280;57837;52.064;113.478;2023-12-29T13:55:35;93945.34;;;-14.50
70415;BMP280;57837;52.064;113.478;2023-12-29T13:58:51;93950.38;;;-14.55
70415;BMP280;57837;52.064;113.478;2023-12-29T14:01:55;93948.09;;;-14.47
70415;BMP280;57837;52.064;113.478;2023-12-29T14:05:27;93945.28;;;-14.30
70415;BMP280;57837;52.064;113.478;2023-12-29T14:08:44;93944.69;;;-14.17
70415;BMP280;57837;52.064;113.478;2023-12-29T14:11:51;93938.16;;;-14.47
70415;BMP280;57837;52.064;113.478;2023-12-29T14:15:03;93947.59;;;-14.49
70415;BMP280;57837;52.064;113.478;2023-12-29T14:21:30;93949.59;;;-14.51
70415;BMP280;57837;52.064;113.478;2023-12-29T14:24:36;93953.94;;;-14.72
70415;BMP280;57837;52.064;113.478;2023-12-29T14:27:41;93959.53;;;-15.10
70415;BMP280;57837;52.064;113.478;2023-12-29T14:30:45;93958.06;;;-15.21
70415;BMP280;57837;52.064;113.478;2023-12-29T14:33:49;93954.28;;;-15.04
70415;BMP280;57837;52.064;113.478;2023-12-29T14:37:01;93954.28;;;-14.99
70415;BMP280;57837;52.064;113.478;2023-12-29T14:40:05;93955.47;;;-14.91
70415;BMP280;57837;52.064;113.478;2023-12-29T14:43:08;93957.50;;;-14.98
70415;BMP280;57837;52.064;113.478;2023-12-29T14:46:12;93960.44;;;-14.96
70415;BMP280;57837;52.064;113.478;2023-12-29T14:49:30;93960.44;;;-14.86
70415;BMP280;57837;52.064;113.478;2023-12-29T14:52:34;93958.47;;;-14.89
70415;BMP280;57837;52.064;113.478;2023-12-29T14:55:37;93965.09;;;-14.79
70415;BMP280;57837;52.064;113.478;2023-12-29T14:58:41;93964.84;;;-14.73
70415;BMP280;57837;52.064;113.478;2023-12-29T15:01:46;93967.88;;;-14.81
70415;BMP280;57837;52.064;113.478;2023-12-29T15:04:52;93969.88;;;-14.88
70415;BMP280;57837;52.064;113.478;2023-12-29T15:07:57;93963.13;;;-14.77
70415;BMP280;57837;52.064;113.478;2023-12-29T15:11:06;93961.13;;;-14.70
70415;BMP280;57837;52.064;113.478;2023-12-29T15:14:13;93964.34;;;-14.69
70415;BMP280;57837;52.064;113.478;2023-12-29T15:17:21;93970.78;;;-14.68
70415;BMP280;57837;52.064;113.478;2023-12-29T15:20:24;93964.41;;;-14.85
70415;BMP280;57837;52.064;113.478;2023-12-29T15:23:32;93967.63;;;-14.84
70415;BMP280;57837;52.064;113.478;2023-12-29T15:26:36;93960.13;;;-14.69
70415;BMP280;57837;52.064;113.478;2023-12-29T15:29:39;93963.59;;;-14.65
70415;BMP280;57837;52.064;113.478;2023-12-29T15:32:43;93958.03;;;-14.47
70415;BMP280;57837;52.064;113.478;2023-12-29T15:35:48;93954.56;;;-14.51
70415;BMP280;57837;52.064;113.478;2023-12-29T15:38:52;93954.84;;;-14.52
70415;BMP280;57837;52.064;113.478;2023-12-29T15:41:56;93954.84;;;-14.52
70415;BMP280;57837;52.064;113.478;2023-12-29T15:45:02;93951.06;;;-14.45
70415;BMP280;57837;52.064;113.478;2023-12-29T15:48:06;93951.56;;;-14.43
70415;BMP280;57837;52.064;113.478;2023-12-29T15:51:12;93948.06;;;-14.36
70415;BMP280;57837;52.064;113.478;2023-12-29T15:54:16;93950.00;;;-14.33
70415;BMP280;57837;52.064;113.478;2023-12-29T15:57:24;93941.28;;;-14.31
70415;BMP280;57837;52.064;113.478;2023-12-29T16:00:28;93945.44;;;-14.21
70415;BMP280;57837;52.064;113.478;2023-12-29T16:03:32;93947.94;;;-14.21
70415;BMP280;57837;52.064;113.478;2023-12-29T16:06:37;93944.94;;;-14.18
70415;BMP280;57837;52.064;113.478;2023-12-29T16:09:42;93945.88;;;-14.09
70415;BMP280;57837;52.064;113.478;2023-12-29T16:12:46;93924.53;;;-14.15
70415;BMP280;57837;52.064;113.478;2023-12-29T16:15:52;93936.50;;;-14.17
70415;BMP280;57837;52.064;113.478;2023-12-29T16:18:59;93923.81;;;-14.21
70415;BMP280;57837;52.064;113.478;2023-12-29T16:22:05;93927.75;;;-14.15
70415;BMP280;57837;52.064;113.478;2023-12-29T16:25:09;93937.50;;;-14.18
70415;BMP280;57837;52.064;113.478;2023-12-29T16:28:12;93936.25;;;-14.21
70415;BMP280;57837;52.064;113.478;2023-12-29T16:31:16;93936.69;;;-14.13
70415;BMP280;57837;52.064;113.478;2023-12-29T16:34:20;93932.03;;;-14.20
70415;BMP280;57837;52.064;113.478;2023-12-29T16:37:24;93934.06;;;-14.27
70415;BMP280;57837;52.064;113.478;2023-12-29T16:40:29;93937.41;;;-14.42
70415;BMP280;57837;52.064;113.478;2023-12-29T16:43:32;93929.13;;;-14.77
70415;BMP280;57837;52.064;113.478;2023-12-29T16:46:35;93926.22;;;-14.89
70415;BMP280;57837;52.064;113.478;2023-12-29T16:49:39;93928.94;;;-14.90
70415;BMP280;57837;52.064;113.478;2023-12-29T16:52:43;93933.41;;;-14.98
70415;BMP280;57837;52.064;113.478;2023-12-29T16:55:46;93933.41;;;-14.87
70415;BMP280;57837;52.064;113.478;2023-12-29T16:58:50;93935.13;;;-14.83
70415;BMP280;57837;52.064;113.478;2023-12-29T17:01:55;93927.91;;;-14.84
70415;BMP280;57837;52.064;113.478;2023-12-29T17:04:58;93924.38;;;-14.73
70415;BMP280;57837;52.064;113.478;2023-12-29T17:08:05;93930.03;;;-14.57
70415;BMP280;57837;52.064;113.478;2023-12-29T17:11:09;93934.94;;;-14.47
70415;BMP280;57837;52.064;113.478;2023-12-29T17:14:13;93935.38;;;-14.35